Station Historical Data
Daily Summary for January 3, 2018 Units:  Both    English   Metric
« Previous Day
Next Day »
Daily Weekly Monthly Yearly Custom
  High: Low: Average:
Temperature: 22.6 °F /  -5.2 °C 7.5 °F /  -13.6 °C 15.8 °F /  -9 °C
Dew Point: 15.7 °F /  -9.1 °C 0.1 °F /  -17.7 °C 6.7 °F /  -14.1 °C
Humidity: 84% 50% 68%
Wind Speed: 15.0mph /  24.1km/h - 7.1mph /  11.4km/h
Wind Gust: 23.0mph /  37km/h - -
Wind- - SSW
Pressure: 30.23 in /  1023.6 hPa 30.00 in /  1015.8 hPa -
Precipitation: 0.00 in /  0 mm    
Historical Graphs
 
 
Tabular Data for January 3, 2018
Time Temperature Dew Point Pressure Wind Wind Speed Wind Gust Humidity Rainfall Rate (Hourly)
00:09 12.0 °F /  -11.1 °C 6.7 °F /  -14.1 °C 30.22in /  1023.2hPa South 9.0mph /  14.5km/h 15.0mph /  24.1km/h 79% 0.00in /  0mm
00:14 11.9 °F /  -11.2 °C 6.6 °F /  -14.1 °C 30.22in /  1023.2hPa SW 10.0mph /  16.1km/h 18.0mph /  29km/h 79% 0.00in /  0mm
00:19 11.9 °F /  -11.2 °C 6.4 °F /  -14.2 °C 30.22in /  1023.2hPa SSW 9.0mph /  14.5km/h 22.0mph /  35.4km/h 78% 0.00in /  0mm
00:24 11.8 °F /  -11.2 °C 6.3 °F /  -14.3 °C 30.22in /  1023.2hPa SW 10.0mph /  16.1km/h 20.0mph /  32.2km/h 78% 0.00in /  0mm
00:29 11.8 °F /  -11.2 °C 6.5 °F /  -14.2 °C 30.22in /  1023.2hPa SSW 9.0mph /  14.5km/h 17.0mph /  27.4km/h 79% 0.00in /  0mm
00:34 11.8 °F /  -11.2 °C 6.3 °F /  -14.3 °C 30.22in /  1023.2hPa SSW 11.0mph /  17.7km/h 17.0mph /  27.4km/h 78% 0.00in /  0mm
00:39 11.7 °F /  -11.3 °C 6.2 °F /  -14.3 °C 30.22in /  1023.2hPa SSW 13.0mph /  20.9km/h 18.0mph /  29km/h 78% 0.00in /  0mm
00:44 11.7 °F /  -11.3 °C 6.2 °F /  -14.3 °C 30.22in /  1023.2hPa SSW 7.0mph /  11.3km/h 18.0mph /  29km/h 78% 0.00in /  0mm
00:54 11.5 °F /  -11.4 °C 6.0 °F /  -14.4 °C 30.22in /  1023.2hPa SW 10.0mph /  16.1km/h 21.0mph /  33.8km/h 78% 0.00in /  0mm
00:59 11.5 °F /  -11.4 °C 6.2 °F /  -14.3 °C 30.21in /  1022.9hPa SW 10.0mph /  16.1km/h 21.0mph /  33.8km/h 79% 0.00in /  0mm
01:09 11.5 °F /  -11.4 °C 6.0 °F /  -14.4 °C 30.21in /  1022.9hPa SSW 9.0mph /  14.5km/h 18.0mph /  29km/h 78% 0.00in /  0mm
01:14 11.5 °F /  -11.4 °C 6.0 °F /  -14.4 °C 30.21in /  1022.9hPa SSW 8.0mph /  12.9km/h 17.0mph /  27.4km/h 78% 0.00in /  0mm
01:20 11.4 °F /  -11.4 °C 5.9 °F /  -14.5 °C 30.21in /  1022.9hPa SSW 8.0mph /  12.9km/h 21.0mph /  33.8km/h 78% 0.00in /  0mm
01:29 11.3 °F /  -11.5 °C 5.8 °F /  -14.6 °C 30.21in /  1022.9hPa SSW 9.0mph /  14.5km/h 18.0mph /  29km/h 78% 0.00in /  0mm
01:34 11.3 °F /  -11.5 °C 5.8 °F /  -14.6 °C 30.22in /  1023.2hPa SSE 9.0mph /  14.5km/h 17.0mph /  27.4km/h 78% 0.00in /  0mm
01:39 11.2 °F /  -11.6 °C 5.7 °F /  -14.6 °C 30.22in /  1023.2hPa SSW 9.0mph /  14.5km/h 19.0mph /  30.6km/h 78% 0.00in /  0mm
01:44 11.1 °F /  -11.6 °C 5.6 °F /  -14.7 °C 30.22in /  1023.2hPa WSW 10.0mph /  16.1km/h 16.0mph /  25.7km/h 78% 0.00in /  0mm
01:49 11.0 °F /  -11.7 °C 5.5 °F /  -14.7 °C 30.22in /  1023.2hPa SW 9.0mph /  14.5km/h 17.0mph /  27.4km/h 78% 0.00in /  0mm
01:59 10.9 °F /  -11.7 °C 5.4 °F /  -14.8 °C 30.22in /  1023.2hPa SSW 6.0mph /  9.7km/h 16.0mph /  25.7km/h 78% 0.00in /  0mm
02:04 10.9 °F /  -11.7 °C 5.4 °F /  -14.8 °C 30.22in /  1023.2hPa SSW 8.0mph /  12.9km/h 22.0mph /  35.4km/h 78% 0.00in /  0mm
02:09 10.9 °F /  -11.7 °C 5.1 °F /  -14.9 °C 30.22in /  1023.2hPa SSW 8.0mph /  12.9km/h 22.0mph /  35.4km/h 77% 0.00in /  0mm
02:14 10.8 °F /  -11.8 °C 5.0 °F /  -15 °C 30.22in /  1023.2hPa SSW 8.0mph /  12.9km/h 21.0mph /  33.8km/h 77% 0.00in /  0mm
02:19 10.8 °F /  -11.8 °C 5.0 °F /  -15 °C 30.22in /  1023.2hPa SSW 8.0mph /  12.9km/h 19.0mph /  30.6km/h 77% 0.00in /  0mm
02:29 10.7 °F /  -11.8 °C 4.9 °F /  -15.1 °C 30.23in /  1023.6hPa SSW 7.0mph /  11.3km/h 15.0mph /  24.1km/h 77% 0.00in /  0mm
02:34 10.7 °F /  -11.8 °C 4.9 °F /  -15.1 °C 30.23in /  1023.6hPa SSW 7.0mph /  11.3km/h 15.0mph /  24.1km/h 77% 0.00in /  0mm
02:44 10.6 °F /  -11.9 °C 4.8 °F /  -15.1 °C 30.22in /  1023.2hPa South 5.0mph /  8km/h 17.0mph /  27.4km/h 77% 0.00in /  0mm
02:49 10.5 °F /  -11.9 °C 4.7 °F /  -15.2 °C 30.22in /  1023.2hPa SW 5.0mph /  8km/h 13.0mph /  20.9km/h 77% 0.00in /  0mm
02:59 10.5 °F /  -11.9 °C 4.4 °F /  -15.3 °C 30.22in /  1023.2hPa SSW 5.0mph /  8km/h 15.0mph /  24.1km/h 76% 0.00in /  0mm
03:04 10.4 °F /  -12 °C 4.3 °F /  -15.4 °C 30.22in /  1023.2hPa South 7.0mph /  11.3km/h 18.0mph /  29km/h 76% 0.00in /  0mm
03:09 10.3 °F /  -12.1 °C 4.2 °F /  -15.4 °C 30.22in /  1023.2hPa SSW 9.0mph /  14.5km/h 18.0mph /  29km/h 76% 0.00in /  0mm
03:14 10.2 °F /  -12.1 °C 3.8 °F /  -15.7 °C 30.22in /  1023.2hPa SSW 9.0mph /  14.5km/h 23.0mph /  37km/h 75% 0.00in /  0mm
03:19 10.1 °F /  -12.2 °C 4.0 °F /  -15.6 °C 30.22in /  1023.2hPa SSW 8.0mph /  12.9km/h 23.0mph /  37km/h 76% 0.00in /  0mm
03:24 10.1 °F /  -12.2 °C 4.0 °F /  -15.6 °C 30.22in /  1023.2hPa SSW 7.0mph /  11.3km/h 14.0mph /  22.5km/h 76% 0.00in /  0mm
03:29 10.0 °F /  -12.2 °C 3.9 °F /  -15.6 °C 30.22in /  1023.2hPa South 3.0mph /  4.8km/h 17.0mph /  27.4km/h 76% 0.00in /  0mm
03:34 9.9 °F /  -12.3 °C 3.6 °F /  -15.8 °C 30.22in /  1023.2hPa SSW 8.0mph /  12.9km/h 17.0mph /  27.4km/h 75% 0.00in /  0mm
03:44 9.9 °F /  -12.3 °C 3.6 °F /  -15.8 °C 30.22in /  1023.2hPa South 6.0mph /  9.7km/h 18.0mph /  29km/h 75% 0.00in /  0mm
03:49 9.8 °F /  -12.3 °C 3.5 °F /  -15.8 °C 30.21in /  1022.9hPa South 5.0mph /  8km/h 16.0mph /  25.7km/h 75% 0.00in /  0mm
03:54 9.8 °F /  -12.3 °C 3.5 °F /  -15.8 °C 30.21in /  1022.9hPa SW 5.0mph /  8km/h 17.0mph /  27.4km/h 75% 0.00in /  0mm
03:59 9.8 °F /  -12.3 °C 3.5 °F /  -15.8 °C 30.21in /  1022.9hPa SW 7.0mph /  11.3km/h 15.0mph /  24.1km/h 75% 0.00in /  0mm
04:04 9.7 °F /  -12.4 °C 3.4 °F /  -15.9 °C 30.20in /  1022.6hPa SW 8.0mph /  12.9km/h 19.0mph /  30.6km/h 75% 0.00in /  0mm
04:09 9.6 °F /  -12.4 °C 3.3 °F /  -15.9 °C 30.20in /  1022.6hPa SSW 9.0mph /  14.5km/h 17.0mph /  27.4km/h 75% 0.00in /  0mm
04:14 9.6 °F /  -12.4 °C 3.3 °F /  -15.9 °C 30.20in /  1022.6hPa SW 8.0mph /  12.9km/h 18.0mph /  29km/h 75% 0.00in /  0mm
04:19 9.6 °F /  -12.4 °C 3.0 °F /  -16.1 °C 30.20in /  1022.6hPa SSW 9.0mph /  14.5km/h 18.0mph /  29km/h 74% 0.00in /  0mm
04:24 9.5 °F /  -12.5 °C 2.9 °F /  -16.2 °C 30.20in /  1022.6hPa SSW 8.0mph /  12.9km/h 17.0mph /  27.4km/h 74% 0.00in /  0mm
04:29 9.5 °F /  -12.5 °C 2.9 °F /  -16.2 °C 30.20in /  1022.6hPa SSW 8.0mph /  12.9km/h 18.0mph /  29km/h 74% 0.00in /  0mm
04:39 9.3 °F /  -12.6 °C 2.7 °F /  -16.3 °C 30.20in /  1022.6hPa SSW 8.0mph /  12.9km/h 19.0mph /  30.6km/h 74% 0.00in /  0mm
04:44 9.2 °F /  -12.7 °C 2.6 °F /  -16.3 °C 30.19in /  1022.2hPa SW 7.0mph /  11.3km/h 16.0mph /  25.7km/h 74% 0.00in /  0mm
04:49 9.0 °F /  -12.8 °C 2.4 °F /  -16.4 °C 30.19in /  1022.2hPa SSW 7.0mph /  11.3km/h 16.0mph /  25.7km/h 74% 0.00in /  0mm
04:54 8.9 °F /  -12.8 °C 2.3 °F /  -16.5 °C 30.19in /  1022.2hPa SSW 9.0mph /  14.5km/h 15.0mph /  24.1km/h 74% 0.00in /  0mm
04:59 8.9 °F /  -12.8 °C 2.0 °F /  -16.7 °C 30.19in /  1022.2hPa SSW 8.0mph /  12.9km/h 18.0mph /  29km/h 73% 0.00in /  0mm
05:04 8.8 °F /  -12.9 °C 2.2 °F /  -16.6 °C 30.19in /  1022.2hPa WSW 5.0mph /  8km/h 17.0mph /  27.4km/h 74% 0.00in /  0mm
05:09 8.8 °F /  -12.9 °C 2.2 °F /  -16.6 °C 30.20in /  1022.6hPa SSW 7.0mph /  11.3km/h 17.0mph /  27.4km/h 74% 0.00in /  0mm
05:19 8.8 °F /  -12.9 °C 1.9 °F /  -16.7 °C 30.19in /  1022.2hPa SSW 5.0mph /  8km/h 15.0mph /  24.1km/h 73% 0.00in /  0mm
05:24 8.8 °F /  -12.9 °C 1.9 °F /  -16.7 °C 30.19in /  1022.2hPa SSW 8.0mph /  12.9km/h 17.0mph /  27.4km/h 73% 0.00in /  0mm
05:29 8.7 °F /  -12.9 °C 1.8 °F /  -16.8 °C 30.19in /  1022.2hPa SSW 8.0mph /  12.9km/h 17.0mph /  27.4km/h 73% 0.00in /  0mm
05:39 8.6 °F /  -13 °C 1.7 °F /  -16.8 °C 30.19in /  1022.2hPa SSW 8.0mph /  12.9km/h 18.0mph /  29km/h 73% 0.00in /  0mm
05:49 8.4 °F /  -13.1 °C 1.5 °F /  -16.9 °C 30.19in /  1022.2hPa SSW 8.0mph /  12.9km/h 18.0mph /  29km/h 73% 0.00in /  0mm
05:54 8.3 °F /  -13.2 °C 1.4 °F /  -17 °C 30.19in /  1022.2hPa SSW 8.0mph /  12.9km/h 18.0mph /  29km/h 73% 0.00in /  0mm
06:09 8.1 °F /  -13.3 °C 0.9 °F /  -17.3 °C 30.19in /  1022.2hPa SSW 7.0mph /  11.3km/h 12.0mph /  19.3km/h 72% 0.00in /  0mm
06:19 7.9 °F /  -13.4 °C 0.7 °F /  -17.4 °C 30.19in /  1022.2hPa South 5.0mph /  8km/h 10.0mph /  16.1km/h 72% 0.00in /  0mm
06:24 7.8 °F /  -13.4 °C 0.6 °F /  -17.4 °C 30.19in /  1022.2hPa South 4.0mph /  6.4km/h 12.0mph /  19.3km/h 72% 0.00in /  0mm
06:34 7.7 °F /  -13.5 °C 0.5 °F /  -17.5 °C 30.19in /  1022.2hPa SSW 6.0mph /  9.7km/h 12.0mph /  19.3km/h 72% 0.00in /  0mm
06:39 7.7 °F /  -13.5 °C 0.5 °F /  -17.5 °C 30.19in /  1022.2hPa South 6.0mph /  9.7km/h 16.0mph /  25.7km/h 72% 0.00in /  0mm
06:44 7.6 °F /  -13.6 °C 0.2 °F /  -17.7 °C 30.19in /  1022.2hPa South 7.0mph /  11.3km/h 16.0mph /  25.7km/h 71% 0.00in /  0mm
06:49 7.6 °F /  -13.6 °C 0.2 °F /  -17.7 °C 30.19in /  1022.2hPa SSW 8.0mph /  12.9km/h 16.0mph /  25.7km/h 71% 0.00in /  0mm
06:59 7.6 °F /  -13.6 °C 0.5 °F /  -17.5 °C 30.19in /  1022.2hPa SSW 6.0mph /  9.7km/h 12.0mph /  19.3km/h 72% 0.00in /  0mm
07:04 7.6 °F /  -13.6 °C 0.5 °F /  -17.5 °C 30.19in /  1022.2hPa SSW 6.0mph /  9.7km/h 13.0mph /  20.9km/h 72% 0.00in /  0mm
07:09 7.6 °F /  -13.6 °C 0.5 °F /  -17.5 °C 30.19in /  1022.2hPa SSW 6.0mph /  9.7km/h 13.0mph /  20.9km/h 72% 0.00in /  0mm
07:19 7.6 °F /  -13.6 °C 0.2 °F /  -17.7 °C 30.19in /  1022.2hPa South 4.0mph /  6.4km/h 13.0mph /  20.9km/h 71% 0.00in /  0mm
07:24 7.6 °F /  -13.6 °C 0.2 °F /  -17.7 °C 30.19in /  1022.2hPa SSW 4.0mph /  6.4km/h 13.0mph /  20.9km/h 71% 0.00in /  0mm
07:34 7.5 °F /  -13.6 °C 0.1 °F /  -17.7 °C 30.19in /  1022.2hPa SW 7.0mph /  11.3km/h 10.0mph /  16.1km/h 71% 0.00in /  0mm
07:44 7.5 °F /  -13.6 °C 0.1 °F /  -17.7 °C 30.19in /  1022.2hPa South 6.0mph /  9.7km/h 12.0mph /  19.3km/h 71% 0.00in /  0mm
07:49 7.5 °F /  -13.6 °C 0.4 °F /  -17.6 °C 30.19in /  1022.2hPa South 7.0mph /  11.3km/h 15.0mph /  24.1km/h 72% 0.00in /  0mm
07:54 7.5 °F /  -13.6 °C 0.1 °F /  -17.7 °C 30.19in /  1022.2hPa South 7.0mph /  11.3km/h 15.0mph /  24.1km/h 71% 0.00in /  0mm
07:59 7.6 °F /  -13.6 °C 0.5 °F /  -17.5 °C 30.19in /  1022.2hPa South 7.0mph /  11.3km/h 17.0mph /  27.4km/h 72% 0.00in /  0mm
08:04 7.6 °F /  -13.6 °C 0.5 °F /  -17.5 °C 30.18in /  1021.9hPa South 7.0mph /  11.3km/h 17.0mph /  27.4km/h 72% 0.00in /  0mm
08:09 7.6 °F /  -13.6 °C 0.5 °F /  -17.5 °C 30.18in /  1021.9hPa SSE 10.0mph /  16.1km/h 13.0mph /  20.9km/h 72% 0.00in /  0mm
08:14 7.6 °F /  -13.6 °C 0.5 °F /  -17.5 °C 30.18in /  1021.9hPa South 11.0mph /  17.7km/h 16.0mph /  25.7km/h 72% 0.00in /  0mm
08:19 7.9 °F /  -13.4 °C 0.7 °F /  -17.4 °C 30.18in /  1021.9hPa SSW 6.0mph /  9.7km/h 13.0mph /  20.9km/h 72% 0.00in /  0mm
08:24 8.1 °F /  -13.3 °C 0.9 °F /  -17.3 °C 30.18in /  1021.9hPa SSW 7.0mph /  11.3km/h 18.0mph /  29km/h 72% 0.00in /  0mm
08:29 8.3 °F /  -13.2 °C 1.1 °F /  -17.2 °C 30.18in /  1021.9hPa South 4.0mph /  6.4km/h 17.0mph /  27.4km/h 72% 0.00in /  0mm
08:34 8.5 °F /  -13.1 °C 1.3 °F /  -17.1 °C 30.18in /  1021.9hPa South 9.0mph /  14.5km/h 15.0mph /  24.1km/h 72% 0.00in /  0mm
08:39 8.7 °F /  -12.9 °C 1.5 °F /  -16.9 °C 30.18in /  1021.9hPa SSW 5.0mph /  8km/h 15.0mph /  24.1km/h 72% 0.00in /  0mm
08:44 8.9 °F /  -12.8 °C 1.7 °F /  -16.8 °C 30.18in /  1021.9hPa SSE 14.0mph /  22.5km/h 18.0mph /  29km/h 72% 0.00in /  0mm
08:54 9.5 °F /  -12.5 °C 2.3 °F /  -16.5 °C 30.18in /  1021.9hPa South 7.0mph /  11.3km/h 16.0mph /  25.7km/h 72% 0.00in /  0mm
09:04 10.5 °F /  -11.9 °C 3.3 °F /  -15.9 °C 30.18in /  1021.9hPa SSW 7.0mph /  11.3km/h 14.0mph /  22.5km/h 72% 0.00in /  0mm
09:09 11.3 °F /  -11.5 °C 4.0 °F /  -15.6 °C 30.17in /  1021.6hPa SSW 7.0mph /  11.3km/h 14.0mph /  22.5km/h 72% 0.00in /  0mm
09:19 11.6 °F /  -11.3 °C 4.0 °F /  -15.6 °C 30.17in /  1021.6hPa SSW 4.0mph /  6.4km/h 12.0mph /  19.3km/h 71% 0.00in /  0mm
09:24 11.7 °F /  -11.3 °C 4.1 °F /  -15.5 °C 30.17in /  1021.6hPa SW 8.0mph /  12.9km/h 17.0mph /  27.4km/h 71% 0.00in /  0mm
09:29 12.0 °F /  -11.1 °C 4.4 °F /  -15.3 °C 30.17in /  1021.6hPa SSW 7.0mph /  11.3km/h 17.0mph /  27.4km/h 71% 0.00in /  0mm
09:34 12.2 °F /  -11 °C 4.3 °F /  -15.4 °C 30.17in /  1021.6hPa SSW 7.0mph /  11.3km/h 13.0mph /  20.9km/h 70% 0.00in /  0mm
09:44 12.5 °F /  -10.8 °C 4.3 °F /  -15.4 °C 30.17in /  1021.6hPa SW 7.0mph /  11.3km/h 14.0mph /  22.5km/h 69% 0.00in /  0mm
09:49 12.6 °F /  -10.8 °C 4.3 °F /  -15.4 °C 30.17in /  1021.6hPa SW 5.0mph /  8km/h 13.0mph /  20.9km/h 69% 0.00in /  0mm
09:54 12.6 °F /  -10.8 °C 4.0 °F /  -15.6 °C 30.17in /  1021.6hPa South 11.0mph /  17.7km/h 18.0mph /  29km/h 68% 0.00in /  0mm
09:59 12.6 °F /  -10.8 °C 3.7 °F /  -15.7 °C 30.17in /  1021.6hPa SSW 3.0mph /  4.8km/h 13.0mph /  20.9km/h 67% 0.00in /  0mm
10:04 13.0 °F /  -10.6 °C 4.1 °F /  -15.5 °C 30.17in /  1021.6hPa SSW 7.0mph /  11.3km/h 17.0mph /  27.4km/h 67% 0.00in /  0mm
10:09 13.1 °F /  -10.5 °C 4.2 °F /  -15.4 °C 30.17in /  1021.6hPa SSW 7.0mph /  11.3km/h 17.0mph /  27.4km/h 67% 0.00in /  0mm
10:14 13.1 °F /  -10.5 °C 3.5 °F /  -15.8 °C 30.16in /  1021.2hPa SSW 7.0mph /  11.3km/h 16.0mph /  25.7km/h 65% 0.00in /  0mm
10:19 13.3 °F /  -10.4 °C 3.7 °F /  -15.7 °C 30.16in /  1021.2hPa SW 5.0mph /  8km/h 17.0mph /  27.4km/h 65% 0.00in /  0mm
10:24 13.5 °F /  -10.3 °C 3.9 °F /  -15.6 °C 30.16in /  1021.2hPa SSW 5.0mph /  8km/h 14.0mph /  22.5km/h 65% 0.00in /  0mm
10:34 13.9 °F /  -10.1 °C 3.3 °F /  -15.9 °C 30.15in /  1020.9hPa SSW 5.0mph /  8km/h 16.0mph /  25.7km/h 62% 0.00in /  0mm
10:39 13.9 °F /  -10.1 °C 3.3 °F /  -15.9 °C 30.15in /  1020.9hPa SSW 8.0mph /  12.9km/h 16.0mph /  25.7km/h 62% 0.00in /  0mm
10:44 14.1 °F /  -9.9 °C 3.1 °F /  -16.1 °C 30.15in /  1020.9hPa SSW 7.0mph /  11.3km/h 14.0mph /  22.5km/h 61% 0.00in /  0mm
10:49 14.5 °F /  -9.7 °C 3.5 °F /  -15.8 °C 30.15in /  1020.9hPa SSW 6.0mph /  9.7km/h 16.0mph /  25.7km/h 61% 0.00in /  0mm
10:54 14.8 °F /  -9.6 °C 3.4 °F /  -15.9 °C 30.15in /  1020.9hPa SSW 4.0mph /  6.4km/h 14.0mph /  22.5km/h 60% 0.00in /  0mm
11:04 14.7 °F /  -9.6 °C 2.6 °F /  -16.3 °C 30.14in /  1020.5hPa SW 11.0mph /  17.7km/h 16.0mph /  25.7km/h 58% 0.00in /  0mm
11:14 15.3 °F /  -9.3 °C 2.8 °F /  -16.2 °C 30.13in /  1020.2hPa SSW 8.0mph /  12.9km/h 16.0mph /  25.7km/h 57% 0.00in /  0mm
11:24 16.2 °F /  -8.8 °C 3.6 °F /  -15.8 °C 30.13in /  1020.2hPa SSW 8.0mph /  12.9km/h 17.0mph /  27.4km/h 57% 0.00in /  0mm
11:29 16.4 °F /  -8.7 °C 3.4 °F /  -15.9 °C 30.12in /  1019.9hPa SW 11.0mph /  17.7km/h 14.0mph /  22.5km/h 56% 0.00in /  0mm
11:34 16.8 °F /  -8.4 °C 3.8 °F /  -15.7 °C 30.12in /  1019.9hPa SSW 7.0mph /  11.3km/h 15.0mph /  24.1km/h 56% 0.00in /  0mm
11:39 17.1 °F /  -8.3 °C 3.7 °F /  -15.7 °C 30.11in /  1019.5hPa South 5.0mph /  8km/h 13.0mph /  20.9km/h 55% 0.00in /  0mm
11:44 17.2 °F /  -8.2 °C 3.8 °F /  -15.7 °C 30.11in /  1019.5hPa SSW 7.0mph /  11.3km/h 14.0mph /  22.5km/h 55% 0.00in /  0mm
11:54 17.3 °F /  -8.2 °C 3.5 °F /  -15.8 °C 30.11in /  1019.5hPa South 11.0mph /  17.7km/h 16.0mph /  25.7km/h 54% 0.00in /  0mm
11:59 17.6 °F /  -8 °C 3.8 °F /  -15.7 °C 30.10in /  1019.2hPa SSW 10.0mph /  16.1km/h 18.0mph /  29km/h 54% 0.00in /  0mm
12:04 17.7 °F /  -7.9 °C 3.4 °F /  -15.9 °C 30.10in /  1019.2hPa SSW 8.0mph /  12.9km/h 18.0mph /  29km/h 53% 0.00in /  0mm
12:14 18.8 °F /  -7.3 °C 4.1 °F /  -15.5 °C 30.09in /  1018.8hPa South 12.0mph /  19.3km/h 20.0mph /  32.2km/h 52% 0.00in /  0mm
12:19 19.3 °F /  -7.1 °C 4.9 °F /  -15.1 °C 30.09in /  1018.8hPa SSW 8.0mph /  12.9km/h 20.0mph /  32.2km/h 53% 0.00in /  0mm
12:24 19.5 °F /  -6.9 °C 4.7 °F /  -15.2 °C 30.08in /  1018.5hPa SSW 8.0mph /  12.9km/h 19.0mph /  30.6km/h 52% 0.00in /  0mm
12:34 19.4 °F /  -7 °C 4.2 °F /  -15.4 °C 30.07in /  1018.2hPa SSW 8.0mph /  12.9km/h 21.0mph /  33.8km/h 51% 0.00in /  0mm
12:44 19.5 °F /  -6.9 °C 5.1 °F /  -14.9 °C 30.07in /  1018.2hPa SSW 6.0mph /  9.7km/h 13.0mph /  20.9km/h 53% 0.00in /  0mm
12:49 19.1 °F /  -7.2 °C 4.3 °F /  -15.4 °C 30.07in /  1018.2hPa South 6.0mph /  9.7km/h 13.0mph /  20.9km/h 52% 0.00in /  0mm
12:59 20.1 °F /  -6.6 °C 4.4 °F /  -15.3 °C 30.07in /  1018.2hPa SSW 7.0mph /  11.3km/h 14.0mph /  22.5km/h 50% 0.00in /  0mm
13:09 19.9 °F /  -6.7 °C 4.7 °F /  -15.2 °C 30.06in /  1017.8hPa SW 3.0mph /  4.8km/h 13.0mph /  20.9km/h 51% 0.00in /  0mm
13:14 20.1 °F /  -6.6 °C 5.7 °F /  -14.6 °C 30.05in /  1017.5hPa SSE 5.0mph /  8km/h 9.0mph /  14.5km/h 53% 0.00in /  0mm
13:15 20.1 °F /  -6.6 °C 5.7 °F /  -14.6 °C 30.05in /  1017.5hPa SSW 6.0mph /  9.7km/h 13.0mph /  20.9km/h 53% 0.00in /  0mm
13:29 20.4 °F /  -6.4 °C 5.5 °F /  -14.7 °C 30.06in /  1017.8hPa SSW 5.0mph /  8km/h 12.0mph /  19.3km/h 52% 0.00in /  0mm
13:34 20.1 °F /  -6.6 °C 4.8 °F /  -15.1 °C 30.05in /  1017.5hPa SSW 6.0mph /  9.7km/h 14.0mph /  22.5km/h 51% 0.00in /  0mm
13:39 20.2 °F /  -6.6 °C 5.4 °F /  -14.8 °C 30.05in /  1017.5hPa SSW 7.0mph /  11.3km/h 14.0mph /  22.5km/h 52% 0.00in /  0mm
13:49 20.3 °F /  -6.5 °C 5.0 °F /  -15 °C 30.05in /  1017.5hPa South 5.0mph /  8km/h 10.0mph /  16.1km/h 51% 0.00in /  0mm
13:54 20.4 °F /  -6.4 °C 5.1 °F /  -14.9 °C 30.04in /  1017.2hPa SW 9.0mph /  14.5km/h 14.0mph /  22.5km/h 51% 0.00in /  0mm
13:59 20.4 °F /  -6.4 °C 5.1 °F /  -14.9 °C 30.04in /  1017.2hPa SSW 7.0mph /  11.3km/h 10.0mph /  16.1km/h 51% 0.00in /  0mm
14:04 20.6 °F /  -6.3 °C 5.3 °F /  -14.8 °C 30.04in /  1017.2hPa SSW 6.0mph /  9.7km/h 11.0mph /  17.7km/h 51% 0.00in /  0mm
14:09 20.6 °F /  -6.3 °C 5.3 °F /  -14.8 °C 30.04in /  1017.2hPa SSW 6.0mph /  9.7km/h 11.0mph /  17.7km/h 51% 0.00in /  0mm
14:14 20.9 °F /  -6.2 °C 5.6 °F /  -14.7 °C 30.03in /  1016.8hPa SSW 6.0mph /  9.7km/h 11.0mph /  17.7km/h 51% 0.00in /  0mm
14:24 21.2 °F /  -6 °C 5.9 °F /  -14.5 °C 30.03in /  1016.8hPa South 2.0mph /  3.2km/h 11.0mph /  17.7km/h 51% 0.00in /  0mm
14:29 21.4 °F /  -5.9 °C 6.0 °F /  -14.4 °C 30.03in /  1016.8hPa SSW 5.0mph /  8km/h 11.0mph /  17.7km/h 51% 0.00in /  0mm
14:34 21.5 °F /  -5.8 °C 6.6 °F /  -14.1 °C 30.03in /  1016.8hPa SSW 7.0mph /  11.3km/h 10.0mph /  16.1km/h 52% 0.00in /  0mm
14:39 21.8 °F /  -5.7 °C 6.4 °F /  -14.2 °C 30.02in /  1016.5hPa SSW 6.0mph /  9.7km/h 16.0mph /  25.7km/h 51% 0.00in /  0mm
14:49 22.0 °F /  -5.6 °C 6.6 °F /  -14.1 °C 30.03in /  1016.8hPa West 9.0mph /  14.5km/h 16.0mph /  25.7km/h 51% 0.00in /  0mm
14:54 21.9 °F /  -5.6 °C 6.1 °F /  -14.4 °C 30.02in /  1016.5hPa SW 9.0mph /  14.5km/h 19.0mph /  30.6km/h 50% 0.00in /  0mm
14:59 21.9 °F /  -5.6 °C 6.9 °F /  -13.9 °C 30.02in /  1016.5hPa SW 15.0mph /  24.1km/h 17.0mph /  27.4km/h 52% 0.00in /  0mm
15:04 21.9 °F /  -5.6 °C 6.9 °F /  -13.9 °C 30.02in /  1016.5hPa WSW 8.0mph /  12.9km/h 17.0mph /  27.4km/h 52% 0.00in /  0mm
15:09 21.9 °F /  -5.6 °C 6.9 °F /  -13.9 °C 30.02in /  1016.5hPa WSW 10.0mph /  16.1km/h 17.0mph /  27.4km/h 52% 0.00in /  0mm
15:15 21.9 °F /  -5.6 °C 7.4 °F /  -13.7 °C 30.02in /  1016.5hPa WSW 5.0mph /  8km/h 14.0mph /  22.5km/h 53% 0.00in /  0mm
15:29 21.7 °F /  -5.7 °C 7.6 °F /  -13.6 °C 30.01in /  1016.1hPa SW 7.0mph /  11.3km/h 13.0mph /  20.9km/h 54% 0.00in /  0mm
15:39 21.7 °F /  -5.7 °C 8.0 °F /  -13.3 °C 30.01in /  1016.1hPa WSW 12.0mph /  19.3km/h 15.0mph /  24.1km/h 55% 0.00in /  0mm
15:44 21.8 °F /  -5.7 °C 8.1 °F /  -13.3 °C 30.02in /  1016.5hPa SW 5.0mph /  8km/h 18.0mph /  29km/h 55% 0.00in /  0mm
15:49 21.8 °F /  -5.7 °C 7.7 °F /  -13.5 °C 30.02in /  1016.5hPa WSW 9.0mph /  14.5km/h 18.0mph /  29km/h 54% 0.00in /  0mm
15:54 21.8 °F /  -5.7 °C 7.7 °F /  -13.5 °C 30.02in /  1016.5hPa WSW 9.0mph /  14.5km/h 18.0mph /  29km/h 54% 0.00in /  0mm
15:59 21.7 °F /  -5.7 °C 8.0 °F /  -13.3 °C 30.01in /  1016.1hPa SW 9.0mph /  14.5km/h 15.0mph /  24.1km/h 55% 0.00in /  0mm
16:09 21.6 °F /  -5.8 °C 8.3 °F /  -13.2 °C 30.01in /  1016.1hPa SSW 7.0mph /  11.3km/h 16.0mph /  25.7km/h 56% 0.00in /  0mm
16:14 21.6 °F /  -5.8 °C 8.3 °F /  -13.2 °C 30.01in /  1016.1hPa SSW 9.0mph /  14.5km/h 20.0mph /  32.2km/h 56% 0.00in /  0mm
16:19 21.6 °F /  -5.8 °C 8.3 °F /  -13.2 °C 30.01in /  1016.1hPa SW 8.0mph /  12.9km/h 15.0mph /  24.1km/h 56% 0.00in /  0mm
16:24 21.5 °F /  -5.8 °C 8.2 °F /  -13.2 °C 30.01in /  1016.1hPa SW 8.0mph /  12.9km/h 15.0mph /  24.1km/h 56% 0.00in /  0mm
16:29 21.5 °F /  -5.8 °C 8.6 °F /  -13 °C 30.01in /  1016.1hPa SW 8.0mph /  12.9km/h 16.0mph /  25.7km/h 57% 0.00in /  0mm
16:34 21.5 °F /  -5.8 °C 9.0 °F /  -12.8 °C 30.02in /  1016.5hPa SW 8.0mph /  12.9km/h 16.0mph /  25.7km/h 58% 0.00in /  0mm
16:39 21.5 °F /  -5.8 °C 9.0 °F /  -12.8 °C 30.02in /  1016.5hPa SW 12.0mph /  19.3km/h 17.0mph /  27.4km/h 58% 0.00in /  0mm
16:59 21.3 °F /  -5.9 °C 9.9 °F /  -12.3 °C 30.02in /  1016.5hPa SW 5.0mph /  8km/h 13.0mph /  20.9km/h 61% 0.00in /  0mm
17:04 21.2 °F /  -6 °C 9.8 °F /  -12.3 °C 30.02in /  1016.5hPa SW 5.0mph /  8km/h 17.0mph /  27.4km/h 61% 0.00in /  0mm
17:14 21.3 °F /  -5.9 °C 9.9 °F /  -12.3 °C 30.02in /  1016.5hPa SW 8.0mph /  12.9km/h 15.0mph /  24.1km/h 61% 0.00in /  0mm
17:19 21.3 °F /  -5.9 °C 10.3 °F /  -12.1 °C 30.02in /  1016.5hPa SSW 7.0mph /  11.3km/h 17.0mph /  27.4km/h 62% 0.00in /  0mm
17:24 21.3 °F /  -5.9 °C 10.3 °F /  -12.1 °C 30.02in /  1016.5hPa South 8.0mph /  12.9km/h 14.0mph /  22.5km/h 62% 0.00in /  0mm
17:34 21.5 °F /  -5.8 °C 10.5 °F /  -11.9 °C 30.03in /  1016.8hPa SW 7.0mph /  11.3km/h 17.0mph /  27.4km/h 62% 0.00in /  0mm
17:39 21.7 °F /  -5.7 °C 10.7 °F /  -11.8 °C 30.03in /  1016.8hPa SW 7.0mph /  11.3km/h 17.0mph /  27.4km/h 62% 0.00in /  0mm
17:44 21.8 °F /  -5.7 °C 10.4 °F /  -12 °C 30.03in /  1016.8hPa SW 7.0mph /  11.3km/h 16.0mph /  25.7km/h 61% 0.00in /  0mm
17:54 22.0 °F /  -5.6 °C 10.2 °F /  -12.1 °C 30.03in /  1016.8hPa SSW 6.0mph /  9.7km/h 14.0mph /  22.5km/h 60% 0.00in /  0mm
17:59 22.0 °F /  -5.6 °C 9.8 °F /  -12.3 °C 30.04in /  1017.2hPa SSW 6.0mph /  9.7km/h 13.0mph /  20.9km/h 59% 0.00in /  0mm
18:04 22.0 °F /  -5.6 °C 9.8 °F /  -12.3 °C 30.04in /  1017.2hPa South 7.0mph /  11.3km/h 14.0mph /  22.5km/h 59% 0.00in /  0mm
18:09 22.0 °F /  -5.6 °C 9.5 °F /  -12.5 °C 30.04in /  1017.2hPa SSW 7.0mph /  11.3km/h 14.0mph /  22.5km/h 58% 0.00in /  0mm
18:14 22.1 °F /  -5.5 °C 9.9 °F /  -12.3 °C 30.04in /  1017.2hPa SW 11.0mph /  17.7km/h 16.0mph /  25.7km/h 59% 0.00in /  0mm
18:19 22.2 °F /  -5.4 °C 10.4 °F /  -12 °C 30.04in /  1017.2hPa WSW 2.0mph /  3.2km/h 13.0mph /  20.9km/h 60% 0.00in /  0mm
18:24 22.2 °F /  -5.4 °C 10.4 °F /  -12 °C 30.04in /  1017.2hPa SW 4.0mph /  6.4km/h 10.0mph /  16.1km/h 60% 0.00in /  0mm
18:29 22.4 °F /  -5.3 °C 11.0 °F /  -11.7 °C 30.04in /  1017.2hPa SW 4.0mph /  6.4km/h 11.0mph /  17.7km/h 61% 0.00in /  0mm
18:34 22.5 °F /  -5.3 °C 11.1 °F /  -11.6 °C 30.04in /  1017.2hPa SW 5.0mph /  8km/h 14.0mph /  22.5km/h 61% 0.00in /  0mm
18:39 22.5 °F /  -5.3 °C 10.7 °F /  -11.8 °C 30.04in /  1017.2hPa SW 10.0mph /  16.1km/h 20.0mph /  32.2km/h 60% 0.00in /  0mm
18:44 22.6 °F /  -5.2 °C 10.4 °F /  -12 °C 30.04in /  1017.2hPa SW 9.0mph /  14.5km/h 22.0mph /  35.4km/h 59% 0.00in /  0mm
18:49 22.6 °F /  -5.2 °C 10.4 °F /  -12 °C 30.04in /  1017.2hPa SW 9.0mph /  14.5km/h 22.0mph /  35.4km/h 59% 0.00in /  0mm
18:54 22.5 °F /  -5.3 °C 10.3 °F /  -12.1 °C 30.04in /  1017.2hPa SW 8.0mph /  12.9km/h 19.0mph /  30.6km/h 59% 0.00in /  0mm
19:04 22.5 °F /  -5.3 °C 10.7 °F /  -11.8 °C 30.04in /  1017.2hPa SW 10.0mph /  16.1km/h 21.0mph /  33.8km/h 60% 0.00in /  0mm
19:09 22.4 °F /  -5.3 °C 10.6 °F /  -11.9 °C 30.04in /  1017.2hPa WSW 9.0mph /  14.5km/h 21.0mph /  33.8km/h 60% 0.00in /  0mm
19:14 22.3 °F /  -5.4 °C 10.5 °F /  -11.9 °C 30.03in /  1016.8hPa West 7.0mph /  11.3km/h 11.0mph /  17.7km/h 60% 0.00in /  0mm
19:24 22.3 °F /  -5.4 °C 10.9 °F /  -11.7 °C 30.03in /  1016.8hPa WSW 10.0mph /  16.1km/h 17.0mph /  27.4km/h 61% 0.00in /  0mm
19:29 22.3 °F /  -5.4 °C 10.5 °F /  -11.9 °C 30.03in /  1016.8hPa WSW 5.0mph /  8km/h 13.0mph /  20.9km/h 60% 0.00in /  0mm
19:44 22.4 °F /  -5.3 °C 10.6 °F /  -11.9 °C 30.03in /  1016.8hPa SW 8.0mph /  12.9km/h 22.0mph /  35.4km/h 60% 0.00in /  0mm
19:49 22.4 °F /  -5.3 °C 10.6 °F /  -11.9 °C 30.03in /  1016.8hPa SW 9.0mph /  14.5km/h 22.0mph /  35.4km/h 60% 0.00in /  0mm
19:54 22.3 °F /  -5.4 °C 10.9 °F /  -11.7 °C 30.03in /  1016.8hPa SW 7.0mph /  11.3km/h 19.0mph /  30.6km/h 61% 0.00in /  0mm
19:59 22.2 °F /  -5.4 °C 10.8 °F /  -11.8 °C 30.03in /  1016.8hPa SW 7.0mph /  11.3km/h 17.0mph /  27.4km/h 61% 0.00in /  0mm
20:04 22.2 °F /  -5.4 °C 10.8 °F /  -11.8 °C 30.02in /  1016.5hPa SW 9.0mph /  14.5km/h 17.0mph /  27.4km/h 61% 0.00in /  0mm
20:14 22.2 °F /  -5.4 °C 11.1 °F /  -11.6 °C 30.02in /  1016.5hPa West 9.0mph /  14.5km/h 16.0mph /  25.7km/h 62% 0.00in /  0mm
20:29 22.0 °F /  -5.6 °C 11.7 °F /  -11.3 °C 30.01in /  1016.1hPa WSW 10.0mph /  16.1km/h 19.0mph /  30.6km/h 64% 0.00in /  0mm
20:34 22.0 °F /  -5.6 °C 11.7 °F /  -11.3 °C 30.01in /  1016.1hPa WSW 10.0mph /  16.1km/h 16.0mph /  25.7km/h 64% 0.00in /  0mm
20:39 21.9 °F /  -5.6 °C 11.9 °F /  -11.2 °C 30.01in /  1016.1hPa WSW 10.0mph /  16.1km/h 16.0mph /  25.7km/h 65% 0.00in /  0mm
20:44 21.8 °F /  -5.7 °C 12.2 °F /  -11 °C 30.01in /  1016.1hPa SW 7.0mph /  11.3km/h 17.0mph /  27.4km/h 66% 0.00in /  0mm
20:49 21.7 °F /  -5.7 °C 12.4 °F /  -10.9 °C 30.01in /  1016.1hPa SW 8.0mph /  12.9km/h 17.0mph /  27.4km/h 67% 0.00in /  0mm
20:54 21.6 °F /  -5.8 °C 12.7 °F /  -10.7 °C 30.01in /  1016.1hPa SW 8.0mph /  12.9km/h 19.0mph /  30.6km/h 68% 0.00in /  0mm
20:59 21.5 °F /  -5.8 °C 12.9 °F /  -10.6 °C 30.01in /  1016.1hPa WNW 7.0mph /  11.3km/h 14.0mph /  22.5km/h 69% 0.00in /  0mm
21:04 21.6 °F /  -5.8 °C 13.3 °F /  -10.4 °C 30.01in /  1016.1hPa SW 8.0mph /  12.9km/h 16.0mph /  25.7km/h 70% 0.00in /  0mm
21:09 21.5 °F /  -5.8 °C 13.5 °F /  -10.3 °C 30.01in /  1016.1hPa SW 9.0mph /  14.5km/h 16.0mph /  25.7km/h 71% 0.00in /  0mm
21:19 21.3 °F /  -5.9 °C 14.0 °F /  -10 °C 30.01in /  1016.1hPa WSW 8.0mph /  12.9km/h 18.0mph /  29km/h 73% 0.00in /  0mm
21:24 21.2 °F /  -6 °C 14.5 °F /  -9.7 °C 30.02in /  1016.5hPa SW 8.0mph /  12.9km/h 18.0mph /  29km/h 75% 0.00in /  0mm
21:34 21.1 °F /  -6.1 °C 15.0 °F /  -9.4 °C 30.01in /  1016.1hPa WSW 6.0mph /  9.7km/h 12.0mph /  19.3km/h 77% 0.00in /  0mm
21:39 21.0 °F /  -6.1 °C 15.2 °F /  -9.3 °C 30.01in /  1016.1hPa SW 5.0mph /  8km/h 12.0mph /  19.3km/h 78% 0.00in /  0mm
21:49 20.9 °F /  -6.2 °C 15.7 °F /  -9.1 °C 30.01in /  1016.1hPa South 1.0mph /  1.6km/h 11.0mph /  17.7km/h 80% 0.00in /  0mm
21:54 20.8 °F /  -6.2 °C 15.6 °F /  -9.1 °C 30.01in /  1016.1hPa SW 7.0mph /  11.3km/h 11.0mph /  17.7km/h 80% 0.00in /  0mm
22:04 20.6 °F /  -6.3 °C 15.7 °F /  -9.1 °C 30.01in /  1016.1hPa SSW 8.0mph /  12.9km/h 10.0mph /  16.1km/h 81% 0.00in /  0mm
22:14 20.5 °F /  -6.4 °C 15.6 °F /  -9.1 °C 30.01in /  1016.1hPa SSW 5.0mph /  8km/h 10.0mph /  16.1km/h 81% 0.00in /  0mm
22:19 20.4 °F /  -6.4 °C 15.5 °F /  -9.2 °C 30.00in /  1015.8hPa SSW 6.0mph /  9.7km/h 10.0mph /  16.1km/h 81% 0.00in /  0mm
22:24 20.3 °F /  -6.5 °C 15.4 °F /  -9.2 °C 30.00in /  1015.8hPa SSW 6.0mph /  9.7km/h 11.0mph /  17.7km/h 81% 0.00in /  0mm
22:29 20.2 °F /  -6.6 °C 15.3 °F /  -9.3 °C 30.00in /  1015.8hPa SSW 5.0mph /  8km/h 13.0mph /  20.9km/h 81% 0.00in /  0mm
22:34 20.1 °F /  -6.6 °C 15.2 °F /  -9.3 °C 30.00in /  1015.8hPa SSW 5.0mph /  8km/h 13.0mph /  20.9km/h 81% 0.00in /  0mm
22:39 19.9 °F /  -6.7 °C 15.0 °F /  -9.4 °C 30.00in /  1015.8hPa SSW 8.0mph /  12.9km/h 14.0mph /  22.5km/h 81% 0.00in /  0mm
22:44 19.9 °F /  -6.7 °C 15.0 °F /  -9.4 °C 30.00in /  1015.8hPa SSW 6.0mph /  9.7km/h 14.0mph /  22.5km/h 81% 0.00in /  0mm
22:49 19.8 °F /  -6.8 °C 14.9 °F /  -9.5 °C 30.00in /  1015.8hPa South 4.0mph /  6.4km/h 8.0mph /  12.9km/h 81% 0.00in /  0mm
22:54 19.7 °F /  -6.8 °C 14.5 °F /  -9.7 °C 30.00in /  1015.8hPa SW 6.0mph /  9.7km/h 13.0mph /  20.9km/h 80% 0.00in /  0mm
22:55 19.7 °F /  -6.8 °C 14.5 °F /  -9.7 °C 30.00in /  1015.8hPa South 5.0mph /  8km/h 13.0mph /  20.9km/h 80% 0.00in /  0mm
23:04 19.7 °F /  -6.8 °C 14.5 °F /  -9.7 °C 30.01in /  1016.1hPa SW 7.0mph /  11.3km/h 12.0mph /  19.3km/h 80% 0.00in /  0mm
23:14 19.6 °F /  -6.9 °C 14.4 °F /  -9.8 °C 30.01in /  1016.1hPa WSW 4.0mph /  6.4km/h 9.0mph /  14.5km/h 80% 0.00in /  0mm
23:19 19.6 °F /  -6.9 °C 14.4 °F /  -9.8 °C 30.01in /  1016.1hPa WSW 4.0mph /  6.4km/h 9.0mph /  14.5km/h 80% 0.00in /  0mm
23:24 19.5 °F /  -6.9 °C 14.6 °F /  -9.7 °C 30.01in /  1016.1hPa WSW 4.0mph /  6.4km/h 7.0mph /  11.3km/h 81% 0.00in /  0mm
23:29 19.4 °F /  -7 °C 14.8 °F /  -9.6 °C 30.01in /  1016.1hPa WSW 3.0mph /  4.8km/h 7.0mph /  11.3km/h 82% 0.00in /  0mm
23:34 19.5 °F /  -6.9 °C 14.9 °F /  -9.5 °C 30.01in /  1016.1hPa WSW 2.0mph /  3.2km/h 8.0mph /  12.9km/h 82% 0.00in /  0mm
23:39 19.3 °F /  -7.1 °C 15.0 °F /  -9.4 °C 30.01in /  1016.1hPa WSW 3.0mph /  4.8km/h 8.0mph /  12.9km/h 83% 0.00in /  0mm
23:44 19.1 °F /  -7.2 °C 14.8 °F /  -9.6 °C 30.01in /  1016.1hPa WSW 4.0mph /  6.4km/h 4.0mph /  6.4km/h 83% 0.00in /  0mm
23:49 19.0 °F /  -7.2 °C 14.7 °F /  -9.6 °C 30.01in /  1016.1hPa WSW 2.0mph /  3.2km/h 4.0mph /  6.4km/h 83% 0.00in /  0mm
23:54 18.9 °F /  -7.3 °C 14.6 °F /  -9.7 °C 30.01in /  1016.1hPa WSW 2.0mph /  3.2km/h 6.0mph /  9.7km/h 83% 0.00in /  0mm
23:59 18.9 °F /  -7.3 °C 14.9 °F /  -9.5 °C 30.01in /  1016.1hPa West 3.0mph /  4.8km/h 6.0mph /  9.7km/h 84% 0.00in /  0mm
Buffalo, New York, USA
Compliments of Weather Underground - 2.25 mb